Time;durP1;ratioP1;P1;durP2;ratioP2;P2;SDS_P1;SDS_P2;PMS_P1;PMS_P2;Temp;Humidity;BMP_temperature;BMP_pressure;BME280_temperature;BME280_humidity;BME280_pressure;Samples;Min_cycle;Max_cycle;Signal;HPM_P1;HPM_P2
2023/02/05 00:02:16;;;;;;;2.53;2.10;;;;;;;0.91;65.91;99413.22;4989179;28;20516;-80
2023/02/05 00:04:42;;;;;;;6.15;2.90;;;;;;;0.89;66.36;99398.91;4989166;28;20026;-74
2023/02/05 00:07:07;;;;;;;4.50;2.42;;;;;;;0.90;67.63;99397.81;4989924;28;20030;-77
2023/02/05 00:09:33;;;;;;;3.25;2.60;;;;;;;0.83;67.78;99400.81;4981232;28;20074;-75
2023/02/05 00:11:59;;;;;;;3.90;2.83;;;;;;;0.81;68.58;99407.69;4981762;28;20030;-79
2023/02/05 00:14:25;;;;;;;2.50;2.30;;;;;;;0.85;69.57;99417.09;4987080;28;20026;-77
2023/02/05 00:16:51;;;;;;;5.75;2.38;;;;;;;0.70;70.92;99407.66;4987816;28;20022;-73
2023/02/05 00:19:17;;;;;;;1.80;1.70;;;;;;;0.68;72.12;99418.13;4990956;28;20052;-77
2023/02/05 00:21:43;;;;;;;2.05;1.95;;;;;;;0.58;73.17;99420.03;4984172;28;20109;-75
2023/02/05 00:24:09;;;;;;;4.13;1.90;;;;;;;0.53;73.87;99418.88;4982955;28;20508;-71
2023/02/05 00:26:35;;;;;;;2.60;1.95;;;;;;;0.51;73.58;99428.53;4990433;28;20022;-74
2023/02/05 00:29:00;;;;;;;4.50;2.65;;;;;;;0.50;74.15;99444.22;4989972;28;20552;-78
2023/02/05 00:31:25;;;;;;;3.67;2.28;;;;;;;0.52;74.21;99450.28;4982152;28;20441;-79
2023/02/05 00:33:51;;;;;;;2.60;2.40;;;;;;;0.54;74.07;99436.25;4985762;28;20030;-77
2023/02/05 00:36:18;;;;;;;3.03;2.35;;;;;;;0.50;72.94;99457.97;4990643;28;20057;-75
2023/02/05 00:38:44;;;;;;;2.67;2.42;;;;;;;0.51;73.11;99454.13;4987766;28;20031;-82
2023/02/05 00:41:10;;;;;;;6.47;3.65;;;;;;;0.45;73.13;99454.38;4976169;28;20137;-76
2023/02/05 00:43:37;;;;;;;3.67;2.78;;;;;;;0.52;73.05;99461.28;4973783;28;20425;-76
2023/02/05 00:46:03;;;;;;;2.67;2.35;;;;;;;0.55;72.77;99465.44;4979488;28;20873;-79
2023/02/05 00:48:28;;;;;;;5.72;3.00;;;;;;;0.51;71.46;99478.88;4979167;28;20031;-76
2023/02/05 00:50:54;;;;;;;4.38;2.72;;;;;;;0.50;70.39;99462.66;4976743;28;20026;-74
2023/02/05 00:53:20;;;;;;;4.57;2.58;;;;;;;0.52;66.90;99472.28;4991157;28;20118;-77
2023/02/05 00:55:46;;;;;;;4.25;3.17;;;;;;;0.52;67.34;99472.28;4980824;28;20212;-79
2023/02/05 00:58:12;;;;;;;4.07;3.13;;;;;;;0.51;65.51;99483.59;4977054;28;20026;-77
2023/02/05 01:00:37;;;;;;;3.03;2.47;;;;;;;0.42;64.18;99488.75;4991747;28;20023;-78
2023/02/05 01:03:03;;;;;;;5.63;2.60;;;;;;;0.41;63.68;99481.59;4979311;28;20506;-79
2023/02/05 01:05:31;;;;;;;3.80;2.75;;;;;;;0.36;64.18;99474.16;4982075;28;20494;-80
2023/02/05 01:07:57;;;;;;;3.92;3.13;;;;;;;0.35;64.56;99488.19;4981046;28;20034;-80
2023/02/05 01:10:23;;;;;;;4.68;3.35;;;;;;;0.28;64.37;99491.97;4974290;28;20018;-80
2023/02/05 01:12:49;;;;;;;3.42;3.13;;;;;;;0.30;64.90;99505.47;4983800;28;20118;-84
2023/02/05 01:15:15;;;;;;;3.00;2.70;;;;;;;0.26;65.38;99501.63;4982489;28;20026;-87
2023/02/05 01:17:41;;;;;;;5.63;3.88;;;;;;;0.26;65.30;99504.38;4980695;28;20018;-82
2023/02/05 01:20:08;;;;;;;3.60;2.60;;;;;;;0.13;65.90;99514.75;4991936;28;20511;-86
2023/02/05 01:22:34;;;;;;;3.90;3.45;;;;;;;-0.01;66.64;99499.75;4975310;28;20502;-85
2023/02/05 01:24:59;;;;;;;2.70;2.50;;;;;;;0.03;67.30;99505.56;4979505;28;20030;-86
2023/02/05 01:27:25;;;;;;;4.13;2.55;;;;;;;-0.08;67.23;99499.19;4993181;28;20019;-86
2023/02/05 01:29:50;;;;;;;3.17;2.70;;;;;;;-0.08;67.93;99526.69;4992364;28;20453;-87
2023/02/05 01:32:17;;;;;;;2.92;2.63;;;;;;;-0.20;68.24;99524.09;4990490;28;20030;-87
2023/02/05 01:34:43;;;;;;;5.80;3.60;;;;;;;-0.25;68.87;99513.06;4991236;28;20026;-86
2023/02/05 01:37:09;;;;;;;2.88;2.67;;;;;;;-0.21;69.31;99522.44;4993406;28;20034;-87
2023/02/05 01:39:36;;;;;;;4.00;3.10;;;;;;;-0.28;69.72;99519.91;4980484;28;20126;-86
2023/02/05 01:42:02;;;;;;;4.25;2.97;;;;;;;-0.32;70.40;99516.03;4973329;28;20026;-87
2023/02/05 01:44:29;;;;;;;4.88;3.85;;;;;;;-0.40;70.75;99528.34;4974969;28;20034;-88
2023/02/05 01:46:55;;;;;;;6.10;3.13;;;;;;;-0.48;71.39;99521.41;4990907;28;20077;-86
2023/02/05 01:49:32;;;;;;;4.95;3.10;;;;;;;-0.45;71.53;99542.84;4982753;28;20034;-86
2023/02/05 01:52:03;;;;;;;3.47;3.13;;;;;;;-0.47;72.13;99531.28;4984396;28;20413;-86
2023/02/05 01:54:31;;;;;;;5.18;3.13;;;;;;;-0.48;73.02;99528.78;4990373;28;20034;-87
2023/02/05 01:57:02;;;;;;;3.50;2.90;;;;;;;-0.46;72.46;99538.44;4992864;28;20386;-87
2023/02/05 01:59:31;;;;;;;4.35;3.10;;;;;;;-0.52;72.92;99544.97;4991572;28;20030;-86
2023/02/05 02:01:59;;;;;;;4.60;3.40;;;;;;;-0.50;73.28;99545.53;4975283;28;20030;-86
2023/02/05 02:04:53;;;;;;;5.00;3.65;;;;;;;-0.46;73.12;99551.34;4971851;28;20034;-87
2023/02/05 02:07:22;;;;;;;5.97;3.58;;;;;;;-0.49;73.29;99558.19;4990749;28;20391;-87
2023/02/05 02:09:49;;;;;;;5.32;3.33;;;;;;;-0.57;73.06;99547.69;4989877;28;20032;-87
2023/02/05 02:12:19;;;;;;;4.22;2.90;;;;;;;-0.53;73.16;99557.06;4990691;28;20553;-86
2023/02/05 02:14:50;;;;;;;3.10;2.85;;;;;;;-0.68;73.55;99548.66;4992061;28;20064;-88
2023/02/05 02:17:17;;;;;;;5.65;3.45;;;;;;;-0.73;74.08;99550.25;4991070;28;20085;-84
2023/02/05 02:19:55;;;;;;;3.92;2.90;;;;;;;-0.74;73.90;99572.50;4983917;28;20036;-87
2023/02/05 02:22:56;;;;;;;4.85;3.50;;;;;;;-0.81;74.59;99578.19;4985113;28;20118;-87
2023/02/05 02:25:28;;;;;;;4.28;3.03;;;;;;;-0.82;75.93;99568.28;4971891;28;20065;-85
2023/02/05 02:28:01;;;;;;;3.55;3.20;;;;;;;-0.84;75.71;99567.72;4972986;28;20030;-85
2023/02/05 02:30:32;;;;;;;5.32;4.13;;;;;;;-0.90;76.23;99590.72;4971985;28;20516;-86
2023/02/05 02:33:06;;;;;;;4.18;3.13;;;;;;;-0.88;76.38;99575.63;4972706;28;20069;-87
2023/02/05 02:35:45;;;;;;;6.03;3.35;;;;;;;-0.95;76.28;99585.97;4974066;28;20023;-86
2023/02/05 02:38:32;;;;;;;3.80;3.30;;;;;;;-0.91;77.05;99595.34;4983751;28;20034;-87
2023/02/05 02:41:06;;;;;;;6.07;3.50;;;;;;;-0.97;77.32;99588.16;4990665;28;20448;-88
2023/02/05 02:43:45;;;;;;;3.33;3.03;;;;;;;-1.03;77.99;99598.25;4992357;28;20030;-87
2023/02/05 02:46:22;;;;;;;5.63;3.70;;;;;;;-1.00;78.20;99594.16;4992218;28;20133;-88
2023/02/05 02:48:51;;;;;;;6.38;3.78;;;;;;;-1.02;78.78;99597.16;4991022;28;20420;-86
2023/02/05 02:51:20;;;;;;;6.20;4.00;;;;;;;-1.01;80.32;99595.25;4989581;28;20361;-88
2023/02/05 02:53:48;;;;;;;5.80;3.90;;;;;;;-1.09;80.03;99601.19;4990844;28;20987;-88
2023/02/05 02:56:16;;;;;;;7.15;4.28;;;;;;;-1.11;79.95;99606.09;4990802;28;20050;-87
2023/02/05 02:58:47;;;;;;;5.18;3.83;;;;;;;-1.19;80.56;99608.19;4990595;28;20026;-86
2023/02/05 03:01:16;;;;;;;12.38;4.05;;;;;;;-1.29;81.43;99602.56;4991086;28;20022;-86
2023/02/05 03:03:50;;;;;;;5.13;3.90;;;;;;;-1.29;81.58;99605.28;4992115;28;20025;-87
2023/02/05 03:06:17;;;;;;;4.30;3.03;;;;;;;-1.24;82.16;99612.78;4977399;28;20038;-87
2023/02/05 03:08:58;;;;;;;7.15;5.00;;;;;;;-1.31;81.75;99613.81;4993184;28;20037;-85
2023/02/05 03:11:25;;;;;;;5.22;3.75;;;;;;;-1.28;81.12;99610.53;4994625;28;20471;-87
2023/02/05 03:13:51;;;;;;;6.97;4.50;;;;;;;-1.22;80.93;99622.44;4995756;28;20157;-86
2023/02/05 03:16:18;;;;;;;5.25;4.38;;;;;;;-1.15;78.38;99627.72;4995407;28;20073;-86
2023/02/05 03:18:44;;;;;;;5.15;4.18;;;;;;;-1.11;78.58;99617.09;4994031;28;20029;-85
2023/02/05 03:21:17;;;;;;;5.13;4.05;;;;;;;-1.11;77.23;99617.91;4994866;28;20026;-86
2023/02/05 03:23:43;;;;;;;9.20;4.35;;;;;;;-1.14;75.41;99622.00;4993372;28;20021;-85
2023/02/05 03:26:27;;;;;;;6.85;4.40;;;;;;;-1.15;74.73;99623.09;4974627;28;20114;-87
2023/02/05 03:28:54;;;;;;;5.90;4.03;;;;;;;-1.15;75.63;99631.31;4975711;28;20022;-87
2023/02/05 03:31:26;;;;;;;7.90;4.28;;;;;;;-1.12;75.03;99629.97;4975834;28;20037;-87
2023/02/05 03:34:07;;;;;;;4.55;3.75;;;;;;;-1.13;74.52;99633.78;4975430;28;20055;-87
2023/02/05 03:36:53;;;;;;;5.93;3.85;;;;;;;-1.16;74.27;99634.31;4976190;28;20512;-86
2023/02/05 03:39:32;;;;;;;6.50;4.13;;;;;;;-1.23;74.96;99639.13;5006182;28;20039;-86
2023/02/05 03:42:18;;;;;;;5.93;4.13;;;;;;;-1.34;75.32;99638.16;4975064;28;20026;-87
2023/02/05 03:44:58;;;;;;;6.53;4.30;;;;;;;-1.37;76.03;99631.25;4992620;28;20022;-83
2023/02/05 03:47:37;;;;;;;;;;;;;;;-1.42;78.20;99633.94;4994357;28;20120;-86
2023/02/05 03:50:15;;;;;;;7.63;4.40;;;;;;;-1.50;77.88;99637.09;4995204;28;19909;-86
2023/02/05 03:52:50;;;;;;;6.00;4.82;;;;;;;-1.57;79.29;99637.28;4993182;28;20030;-86
2023/02/05 03:55:26;;;;;;;5.03;3.70;;;;;;;-1.56;79.90;99648.00;4995001;28;20108;-86
2023/02/05 03:57:58;;;;;;;6.40;5.47;;;;;;;-1.64;79.25;99642.09;4989649;28;20022;-84
2023/02/05 04:00:24;;;;;;;6.57;5.05;;;;;;;-1.66;79.95;99641.50;4985578;28;20034;-86
2023/02/05 04:02:50;;;;;;;9.02;5.22;;;;;;;-1.71;79.67;99648.59;4993616;28;20022;-84
2023/02/05 04:05:16;;;;;;;9.30;5.63;;;;;;;-1.76;80.67;99648.47;4994150;28;20018;-86
2023/02/05 04:07:41;;;;;;;5.95;5.05;;;;;;;-1.80;81.37;99655.56;4994070;28;20413;-86
2023/02/05 04:10:07;;;;;;;6.10;4.88;;;;;;;-1.85;82.07;99653.56;4993748;28;20409;-85
2023/02/05 04:12:33;;;;;;;8.27;5.95;;;;;;;-1.93;82.06;99659.47;4987597;28;20030;-85
2023/02/05 04:14:58;;;;;;;10.52;5.55;;;;;;;-1.94;83.11;99651.47;4993275;28;20085;-86
2023/02/05 04:17:24;;;;;;;7.63;5.70;;;;;;;-1.93;83.00;99650.41;4990425;28;20465;-86
2023/02/05 04:19:49;;;;;;;10.63;6.82;;;;;;;-1.95;83.94;99649.81;4981571;28;20041;-85
2023/02/05 04:22:15;;;;;;;10.70;7.13;;;;;;;-1.95;84.91;99658.84;4993312;28;20061;-86
2023/02/05 04:24:40;;;;;;;9.07;6.93;;;;;;;-1.93;84.61;99673.19;4993209;28;20034;-85
2023/02/05 04:27:06;;;;;;;11.88;6.65;;;;;;;-2.00;84.35;99670.56;4993850;28;20022;-85
2023/02/05 04:29:31;;;;;;;11.90;6.82;;;;;;;-1.99;84.99;99680.47;4973551;28;20058;-85
2023/02/05 04:31:57;;;;;;;10.10;5.68;;;;;;;-1.94;84.89;99666.00;4974642;28;20058;-86
2023/02/05 04:34:22;;;;;;;10.02;5.60;;;;;;;-1.93;84.42;99672.34;4974692;28;20035;-85
2023/02/05 04:36:47;;;;;;;6.80;5.40;;;;;;;-1.98;84.08;99665.69;4986819;28;20034;-86
2023/02/05 04:39:13;;;;;;;10.93;5.65;;;;;;;-1.92;83.78;99685.81;4992608;28;20037;-86
2023/02/05 04:41:38;;;;;;;7.93;5.82;;;;;;;-1.93;83.56;99675.91;4988537;28;20398;-85
2023/02/05 04:44:05;;;;;;;8.40;5.10;;;;;;;-1.86;82.24;99687.53;4973669;28;20033;-86
2023/02/05 04:46:31;;;;;;;9.77;5.55;;;;;;;-1.88;82.41;99678.75;4973127;28;20134;-86
2023/02/05 04:48:56;;;;;;;8.23;5.30;;;;;;;-1.87;80.52;99679.56;4974913;28;20081;-87
2023/02/05 04:51:22;;;;;;;7.32;5.57;;;;;;;-1.80;80.18;99679.44;4975074;28;20035;-85
2023/02/05 04:53:47;;;;;;;7.68;5.03;;;;;;;-1.81;79.14;99677.72;4983382;28;20030;-84
2023/02/05 04:56:15;;;;;;;9.27;5.90;;;;;;;-1.78;77.69;99671.78;4993358;28;20034;-86
2023/02/05 04:58:41;;;;;;;8.20;5.97;;;;;;;-1.75;77.64;99674.00;4979585;28;20177;-85
2023/02/05 05:01:15;;;;;;;6.15;4.63;;;;;;;-1.70;76.57;99682.31;4974059;28;20026;-86
2023/02/05 05:03:41;;;;;;;6.85;5.05;;;;;;;-1.71;76.26;99687.00;4973120;28;20490;-86
2023/02/05 05:06:07;;;;;;;6.55;4.60;;;;;;;-1.71;76.27;99681.50;4980922;28;20042;-86
2023/02/05 05:08:32;;;;;;;8.27;5.60;;;;;;;-1.71;76.84;99681.50;4992255;28;20030;-86
2023/02/05 05:10:59;;;;;;;6.78;4.88;;;;;;;-1.71;76.04;99691.63;4984873;28;20018;-86
2023/02/05 05:13:24;;;;;;;11.80;5.90;;;;;;;-1.65;75.03;99687.91;4979350;28;20027;-86
2023/02/05 05:15:54;;;;;;;11.45;5.88;;;;;;;-1.64;74.41;99696.94;4993425;28;20409;-85
2023/02/05 05:18:20;;;;;;;6.32;4.80;;;;;;;-1.71;74.25;99699.84;4992285;28;20014;-87
2023/02/05 05:20:45;;;;;;;6.80;5.05;;;;;;;-1.68;74.01;99696.63;4987109;28;20572;-86
2023/02/05 05:23:11;;;;;;;9.65;6.03;;;;;;;-1.69;74.26;99697.69;4993760;28;20023;-85
2023/02/05 05:25:43;;;;;;;10.30;6.78;;;;;;;-1.68;73.85;99688.41;4993418;28;20050;-87
2023/02/05 05:28:10;;;;;;;8.25;5.75;;;;;;;-1.67;73.71;99702.94;4992115;28;20027;-86
2023/02/05 05:30:40;;;;;;;9.52;5.65;;;;;;;-1.63;73.74;99696.72;4987141;28;20097;-85
2023/02/05 05:33:06;;;;;;;11.00;6.90;;;;;;;-1.68;73.59;99707.63;4975228;28;20410;-87
2023/02/05 05:35:31;;;;;;;16.67;8.82;;;;;;;-1.67;74.04;99717.50;4980802;28;20030;-85
2023/02/05 05:37:57;;;;;;;13.52;7.45;;;;;;;-1.73;74.07;99702.03;4993500;28;20523;-87
2023/02/05 05:46:04;;;;;;;10.25;6.97;;;;;;;-1.72;74.93;99726.47;4985292;28;20065;-83
2023/02/05 05:48:30;;;;;;;10.07;6.30;;;;;;;-1.71;75.13;99724.53;4987115;28;20061;-80
2023/02/05 05:50:55;;;;;;;7.40;6.35;;;;;;;-1.72;74.93;99722.88;4988091;28;20062;-78
2023/02/05 05:53:21;;;;;;;8.82;5.53;;;;;;;-1.71;74.68;99735.50;4971580;28;20561;-81
2023/02/05 05:55:46;;;;;;;14.55;6.85;;;;;;;-1.72;75.22;99729.22;4969464;28;20030;-79
2023/02/05 05:58:12;;;;;;;15.82;8.52;;;;;;;-1.73;74.65;99743.16;4975055;28;20034;-81
2023/02/05 06:00:39;;;;;;;14.63;9.00;;;;;;;-1.71;74.90;99752.81;4987959;28;20142;-80
2023/02/05 06:03:05;;;;;;;18.77;9.95;;;;;;;-1.71;74.52;99746.50;4990487;28;20033;-78
2023/02/05 06:05:31;;;;;;;22.15;11.80;;;;;;;-1.73;74.06;99754.13;4987775;28;20358;-83
2023/02/05 06:07:57;;;;;;;34.03;14.82;;;;;;;-1.74;73.96;99753.31;5004730;28;20049;-80
2023/02/05 06:10:23;;;;;;;16.27;9.48;;;;;;;-1.67;72.78;99757.81;5008482;28;20042;-82
2023/02/05 06:12:49;;;;;;;19.23;9.48;;;;;;;-1.66;73.16;99748.50;4995047;28;20039;-85
2023/02/05 06:15:15;;;;;;;19.48;9.02;;;;;;;-1.58;72.93;99751.66;4969732;28;20074;-86
2023/02/05 06:17:40;;;;;;;14.38;7.40;;;;;;;-1.60;71.91;99775.78;4970585;28;20486;-85
2023/02/05 06:20:06;;;;;;;12.70;6.50;;;;;;;-1.64;71.39;99765.53;4974355;28;20034;-85
2023/02/05 06:22:32;;;;;;;10.32;5.57;;;;;;;-1.59;71.17;99771.94;4986743;28;20406;-86
2023/02/05 06:24:57;;;;;;;10.98;6.13;;;;;;;-1.54;70.87;99779.44;4990176;28;20030;-85
2023/02/05 06:27:23;;;;;;;10.40;5.15;;;;;;;-1.50;69.86;99771.56;4988766;28;20081;-77
2023/02/05 06:29:48;;;;;;;7.50;5.22;;;;;;;-1.49;69.94;99770.47;4976273;28;20138;-84
2023/02/05 06:32:14;;;;;;;5.63;3.80;;;;;;;-1.49;69.85;99776.81;4989374;28;20033;-83
2023/02/05 06:34:39;;;;;;;6.45;4.10;;;;;;;-1.49;69.06;99776.81;4987465;28;20481;-84
2023/02/05 06:37:06;;;;;;;8.65;5.05;;;;;;;-1.47;70.01;99788.38;4988260;28;20026;-84
2023/02/05 06:39:31;;;;;;;12.10;6.10;;;;;;;-1.39;70.72;99783.53;4989505;28;20113;-83
2023/02/05 06:41:57;;;;;;;9.40;5.85;;;;;;;-1.36;68.91;99789.34;4987369;28;20066;-84
2023/02/05 06:44:23;;;;;;;7.40;4.50;;;;;;;-1.33;68.71;99797.13;4983679;28;20026;-80
2023/02/05 06:46:48;;;;;;;8.63;5.68;;;;;;;-1.31;69.61;99792.22;4991984;28;20058;-81
2023/02/05 06:49:14;;;;;;;9.15;5.43;;;;;;;-1.34;68.64;99798.16;4992158;28;20034;-82
2023/02/05 06:51:40;;;;;;;11.70;6.53;;;;;;;-1.33;68.95;99801.75;4980803;28;20108;-83
2023/02/05 06:54:05;;;;;;;7.28;5.10;;;;;;;-1.30;69.03;99802.09;4973071;28;20029;-82
2023/02/05 06:56:31;;;;;;;8.25;5.60;;;;;;;-1.27;68.76;99801.59;4972964;28;20070;-82
2023/02/05 06:58:57;;;;;;;8.65;5.88;;;;;;;-1.32;67.34;99801.53;4976345;28;20034;-85
2023/02/05 07:01:22;;;;;;;9.15;6.53;;;;;;;-1.25;67.10;99808.75;4984227;28;20037;-78
2023/02/05 07:03:51;;;;;;;9.73;5.68;;;;;;;-1.23;67.21;99821.16;4992469;28;20121;-82
2023/02/05 07:06:16;;;;;;;13.27;7.32;;;;;;;-1.23;67.36;99817.56;4991435;28;20041;-83
2023/02/05 07:08:42;;;;;;;11.30;6.45;;;;;;;-1.29;67.54;99825.72;4992028;28;20113;-82
2023/02/05 07:11:07;;;;;;;9.52;5.72;;;;;;;-1.35;67.66;99828.63;4987421;28;20042;-77
2023/02/05 07:13:33;;;;;;;12.73;6.00;;;;;;;-1.36;68.16;99822.28;4987423;28;20037;-81
2023/02/05 07:16:03;;;;;;;9.77;5.43;;;;;;;-1.33;68.03;99835.53;4993291;28;20125;-85
2023/02/05 07:18:28;;;;;;;13.00;7.60;;;;;;;-1.33;68.58;99832.81;4985259;28;20088;-78
2023/02/05 07:20:53;;;;;;;8.27;4.68;;;;;;;-1.36;68.19;99841.50;4984561;28;20046;-80
2023/02/05 07:23:19;;;;;;;12.27;6.55;;;;;;;-1.35;68.85;99837.69;4986765;28;20034;-81
2023/02/05 07:25:45;;;;;;;6.47;4.88;;;;;;;-1.33;68.37;99843.78;4983806;28;20474;-80
2023/02/05 07:28:10;;;;;;;8.63;5.53;;;;;;;-1.36;68.18;99841.50;4984298;28;20038;-78
2023/02/05 07:30:36;;;;;;;16.27;8.88;;;;;;;-1.33;69.10;99852.00;4993323;28;20124;-80
2023/02/05 07:33:02;;;;;;;16.63;9.77;;;;;;;-1.27;69.66;99866.63;4981214;28;20027;-82
2023/02/05 07:35:29;;;;;;;19.15;9.48;;;;;;;-1.32;70.13;99861.91;4981069;28;20026;-85
2023/02/05 07:37:54;;;;;;;15.88;8.93;;;;;;;-1.37;70.47;99861.00;4989884;28;20034;-82
2023/02/05 07:40:20;;;;;;;9.27;6.28;;;;;;;-1.40;71.88;99859.56;4985013;28;20417;-78
2023/02/05 07:42:46;;;;;;;33.05;16.10;;;;;;;-1.40;74.73;99876.03;4978889;28;20174;-79
2023/02/05 07:45:11;;;;;;;10.05;5.68;;;;;;;-1.54;76.17;99871.91;4983332;28;20027;-76
2023/02/05 07:47:36;;;;;;;8.98;6.32;;;;;;;-1.59;77.22;99867.97;4981629;28;20054;-79
2023/02/05 07:50:03;;;;;;;33.15;15.65;;;;;;;-1.45;77.85;99870.41;4993356;28;20026;-80
2023/02/05 07:52:29;;;;;;;97.47;36.97;;;;;;;-1.52;78.62;99878.81;4992214;28;20026;-78
2023/02/05 07:54:54;;;;;;;15.10;8.13;;;;;;;-1.46;79.83;99882.47;4991657;28;20111;-86
2023/02/05 07:57:20;;;;;;;47.88;19.52;;;;;;;-1.53;80.40;99884.56;4992168;28;20034;-77
2023/02/05 07:59:45;;;;;;;41.97;16.95;;;;;;;-1.56;82.72;99881.22;4991555;28;20034;-77
2023/02/05 08:02:11;;;;;;;22.48;9.85;;;;;;;-1.65;84.28;99892.81;4988056;28;20022;-75
2023/02/05 08:04:36;;;;;;;20.75;11.35;;;;;;;-1.80;86.35;99891.44;4989877;28;20126;-83
2023/02/05 08:07:02;;;;;;;35.55;16.70;;;;;;;-1.70;88.06;99897.13;4979235;28;20085;-77
2023/02/05 08:09:27;;;;;;;40.00;17.88;;;;;;;-1.71;87.30;99900.94;4983043;28;20093;-80
2023/02/05 08:11:53;;;;;;;25.73;13.43;;;;;;;-1.76;88.66;99898.09;4991160;28;20022;-88
2023/02/05 08:14:18;;;;;;;32.95;14.30;;;;;;;-1.71;89.37;99911.91;4979257;28;20030;-75
2023/02/05 08:16:44;;;;;;;32.38;14.45;;;;;;;-1.64;89.86;99917.28;4978628;28;20034;-76
2023/02/05 08:19:14;;;;;;;19.15;11.50;;;;;;;-1.61;89.24;99915.97;4994868;28;20049;-80
2023/02/05 08:21:40;;;;;;;28.13;11.82;;;;;;;-1.68;88.91;99926.22;4985386;28;20030;-79
2023/02/05 08:24:05;;;;;;;46.78;20.45;;;;;;;-1.63;90.27;99929.91;4990136;28;20030;-78
2023/02/05 08:26:31;;;;;;;67.68;27.90;;;;;;;-1.45;90.30;99937.13;4986133;28;20058;-79
2023/02/05 08:28:57;;;;;;;132.13;45.72;;;;;;;-1.16;88.95;99944.53;4988408;28;20046;-79
2023/02/05 08:31:22;;;;;;;134.20;50.40;;;;;;;-1.10;88.61;99948.22;4986796;28;20035;-79
2023/02/05 08:33:49;;;;;;;151.90;61.42;;;;;;;-1.15;89.66;99941.56;4982976;28;20027;-81
2023/02/05 08:36:15;;;;;;;41.10;17.40;;;;;;;-1.11;90.23;99952.88;4980625;28;20444;-78
2023/02/05 08:38:41;;;;;;;50.00;21.83;;;;;;;-1.15;91.33;99949.81;4988905;28;20034;-77
2023/02/05 08:41:11;;;;;;;79.75;34.03;;;;;;;-0.75;90.62;99966.44;4993864;28;20053;-77
2023/02/05 08:43:37;;;;;;;;;;;;;;;-0.57;90.85;99952.47;4979116;28;20471;-81
2023/02/05 08:46:03;;;;;;;19.50;10.88;;;;;;;-0.39;89.34;99945.06;4975060;28;19961;-74
2023/02/05 08:48:29;;;;;;;17.48;8.13;;;;;;;-0.13;88.66;99961.94;4980486;28;20874;-78
2023/02/05 08:50:54;;;;;;;16.10;9.98;;;;;;;0.02;87.97;99972.34;4981297;28;20034;-78
2023/02/05 08:53:20;;;;;;;10.65;7.25;;;;;;;0.18;88.24;99970.66;4979756;28;20022;-76
2023/02/05 08:55:56;;;;;;;16.38;8.68;;;;;;;0.36;86.44;99968.69;4992470;28;20018;-74
2023/02/05 08:58:22;;;;;;;8.90;6.53;;;;;;;0.38;86.12;99981.13;4981938;28;20035;-74
2023/02/05 09:00:48;;;;;;;6.32;5.07;;;;;;;0.41;85.18;99977.00;5003681;28;20110;-76
2023/02/05 09:03:13;;;;;;;8.98;5.00;;;;;;;0.35;84.49;99972.53;4988164;28;20018;-77
2023/02/05 09:05:39;;;;;;;5.35;4.20;;;;;;;0.44;84.74;99992.19;4990648;28;20033;-73
2023/02/05 09:08:04;;;;;;;11.35;5.45;;;;;;;0.43;84.03;99974.00;4989724;28;20092;-74
2023/02/05 09:10:30;;;;;;;16.90;10.07;;;;;;;0.35;83.97;99995.38;4984380;28;20030;-73
2023/02/05 09:12:55;;;;;;;36.45;17.05;;;;;;;0.19;86.21;99993.50;4985075;28;20811;-77
2023/02/05 09:15:20;;;;;;;20.60;12.23;;;;;;;0.31;86.16;99994.22;4988290;28;20113;-75
2023/02/05 09:17:46;;;;;;;24.08;8.82;;;;;;;0.27;87.56;100002.16;4982949;28;20038;-73
2023/02/05 09:20:12;;;;;;;10.82;7.00;;;;;;;0.03;89.15;99996.03;4988180;28;20034;-73
2023/02/05 09:22:38;;;;;;;9.65;6.80;;;;;;;0.09;91.78;99997.75;4988915;28;20101;-74
2023/02/05 09:25:07;;;;;;;10.57;6.95;;;;;;;0.08;91.06;99987.84;4995295;28;20041;-73
2023/02/05 09:27:33;;;;;;;14.35;7.32;;;;;;;0.09;90.35;99997.75;4987053;28;20083;-71
2023/02/05 09:29:58;;;;;;;15.77;7.88;;;;;;;0.31;91.08;99996.97;4990183;28;20026;-76
2023/02/05 09:32:24;;;;;;;18.17;8.20;;;;;;;0.44;89.47;99994.94;4983096;28;20030;-73
2023/02/05 09:34:49;;;;;;;11.05;7.20;;;;;;;0.33;87.56;99986.53;4985870;28;20541;-74
2023/02/05 09:37:16;;;;;;;10.40;7.68;;;;;;;0.32;86.99;99992.31;4986072;28;20034;-73
2023/02/05 09:39:41;;;;;;;10.63;6.78;;;;;;;0.34;85.99;99979.94;4983066;28;20370;-73
2023/02/05 09:42:22;;;;;;;8.70;6.53;;;;;;;0.73;81.94;99990.09;4990676;28;20030;-76
2023/02/05 09:44:56;;;;;;;;;;;;;;;0.91;80.95;99985.34;4978619;28;20438;-73
2023/02/05 09:47:30;;;;;;;9.68;6.45;;;;;;;1.05;78.30;99991.25;4989672;28;20295;-78
2023/02/05 09:50:13;;;;;;;7.80;5.95;;;;;;;1.26;78.34;99995.91;4985056;28;20034;-71
2023/02/05 09:52:43;;;;;;;8.20;5.00;;;;;;;1.46;74.55;99983.44;4988444;28;20034;-75
2023/02/05 09:55:32;;;;;;;12.77;6.13;;;;;;;1.45;74.04;99983.69;4982328;28;20033;-74
2023/02/05 09:58:05;;;;;;;10.63;6.00;;;;;;;0.91;73.27;99994.44;4972369;28;20042;-73
2023/02/05 10:00:43;;;;;;;12.50;6.90;;;;;;;1.33;73.77;99983.84;4976813;28;20034;-79
2023/02/05 10:03:22;;;;;;;18.63;6.95;;;;;;;1.42;70.43;99986.97;4990322;28;20409;-79
2023/02/05 10:06:07;;;;;;;11.73;5.50;;;;;;;1.78;71.61;99992.78;4976745;28;20035;-73
2023/02/05 10:08:47;;;;;;;9.23;5.97;;;;;;;1.69;69.68;99986.94;4970632;28;20117;-79
2023/02/05 10:11:28;;;;;;;7.72;5.82;;;;;;;1.47;68.72;99992.50;4970432;28;20026;-72
2023/02/05 10:14:23;;;;;;;9.70;5.30;;;;;;;1.77;68.95;99985.63;4975364;28;20159;-79
2023/02/05 10:17:10;;;;;;;7.47;5.55;;;;;;;1.56;67.85;99995.63;4959753;28;20042;-77
2023/02/05 10:20:03;;;;;;;15.27;6.20;;;;;;;1.04;67.85;100006.97;4972275;28;20030;-78
2023/02/05 10:22:35;;;;;;;9.20;4.82;;;;;;;0.95;68.21;100001.06;4984249;28;20030;-74
2023/02/05 10:25:30;;;;;;;7.80;5.07;;;;;;;0.81;67.05;99994.31;4986131;28;20033;-77
2023/02/05 10:28:31;;;;;;;10.30;5.57;;;;;;;0.82;66.97;100009.72;4989959;28;20112;-74
2023/02/05 10:31:02;;;;;;;;;;;;;;;1.05;65.36;100005.88;4980463;28;20450;-73
2023/02/05 10:34:11;;;;;;;8.50;5.97;;;;;;;0.81;68.17;100008.06;4988064;28;19961;-74
2023/02/05 10:36:36;;;;;;;9.90;6.60;;;;;;;0.58;68.10;100001.72;4964294;28;20053;-76
2023/02/05 10:39:13;;;;;;;14.18;7.20;;;;;;;0.50;68.88;99994.75;4972273;28;20039;-74
2023/02/05 10:41:47;;;;;;;27.48;12.05;;;;;;;0.47;70.93;100006.28;4972823;28;20030;-77
2023/02/05 10:44:18;;;;;;;12.55;6.70;;;;;;;0.56;68.79;100003.91;4970173;28;20031;-74
2023/02/05 10:46:50;;;;;;;10.85;5.15;;;;;;;0.54;69.20;100015.19;4987324;28;20153;-77
2023/02/05 10:49:53;;;;;;;12.13;7.55;;;;;;;0.72;69.25;100009.59;4978903;28;20101;-77
2023/02/05 10:52:18;;;;;;;10.82;6.38;;;;;;;0.84;68.44;100007.56;4991368;28;20038;-77
2023/02/05 10:54:45;;;;;;;7.20;5.57;;;;;;;0.77;71.02;100009.69;4990952;28;20029;-78
2023/02/05 10:57:18;;;;;;;8.95;5.38;;;;;;;0.83;70.58;100003.97;4990690;28;20034;-76
2023/02/05 10:59:53;;;;;;;9.57;6.28;;;;;;;0.78;69.13;100005.84;4987090;28;20037;-78
2023/02/05 11:02:19;;;;;;;9.02;7.00;;;;;;;0.85;71.78;99998.22;4990602;28;20029;-79
2023/02/05 11:04:50;;;;;;;9.02;6.30;;;;;;;0.97;70.63;100012.69;4990148;28;20469;-78
2023/02/05 11:07:27;;;;;;;12.77;6.28;;;;;;;0.88;68.94;100003.22;4989338;28;20037;-77
2023/02/05 11:09:52;;;;;;;10.30;5.88;;;;;;;1.04;69.57;100012.50;4989951;28;20564;-78
2023/02/05 11:12:30;;;;;;;9.43;5.47;;;;;;;0.87;69.45;100012.56;4988682;28;20035;-78
2023/02/05 11:15:01;;;;;;;9.32;4.93;;;;;;;0.71;69.02;99995.03;4982307;28;20034;-76
2023/02/05 11:17:37;;;;;;;8.65;6.38;;;;;;;0.83;69.64;100012.25;4990008;28;20394;-79
2023/02/05 11:20:20;;;;;;;12.75;7.93;;;;;;;0.75;71.57;100014.63;4987044;28;20113;-79
2023/02/05 11:22:45;;;;;;;10.63;7.28;;;;;;;0.54;72.13;100015.19;4990562;28;20058;-77
2023/02/05 11:25:21;;;;;;;10.23;6.85;;;;;;;0.62;70.96;100007.56;4990757;28;20100;-79
2023/02/05 11:28:01;;;;;;;10.25;7.40;;;;;;;0.79;70.42;100007.50;4993768;28;20037;-77
2023/02/05 11:30:34;;;;;;;9.73;6.70;;;;;;;0.83;70.76;100014.16;4990341;28;20579;-78
2023/02/05 11:33:28;;;;;;;23.83;14.18;;;;;;;0.74;71.93;100021.22;4989306;28;20042;-78
2023/02/05 11:36:06;;;;;;;13.15;7.97;;;;;;;0.67;70.64;100022.22;4993569;28;20042;-78
2023/02/05 11:38:43;;;;;;;9.38;7.45;;;;;;;0.53;73.39;100023.69;4992496;28;20050;-78
2023/02/05 11:41:12;;;;;;;15.57;8.25;;;;;;;0.44;71.53;100028.81;4991730;28;20034;-78
2023/02/05 11:43:49;;;;;;;13.20;7.43;;;;;;;0.45;73.05;100008.47;4986624;28;20484;-78
2023/02/05 11:46:18;;;;;;;10.80;6.55;;;;;;;0.31;73.62;100013.47;4991381;28;20417;-78
2023/02/05 11:48:48;;;;;;;24.20;10.98;;;;;;;-0.06;73.48;100016.78;4995013;28;20022;-79